createdAt,value
2023-05-21T05:31:33.170Z,55.7408
2023-05-21T05:32:35.139Z,55.8408
2023-05-21T05:33:37.118Z,58.3431
2023-05-21T05:34:39.171Z,58.2785
2023-05-21T05:35:41.235Z,57.1254
2023-05-21T05:36:43.274Z,56.2423
2023-05-21T05:37:45.313Z,55.6308
2023-05-21T05:38:47.380Z,55.1892
2023-05-21T05:39:49.383Z,54.8638
2023-05-21T05:40:51.430Z,54.6400
2023-05-21T05:41:53.511Z,54.4231
2023-05-21T05:42:55.553Z,54.2177
2023-05-21T05:43:57.588Z,54.0854
2023-05-21T05:44:59.632Z,54.0446
2023-05-21T05:46:01.703Z,53.9800
2023-05-21T05:47:03.709Z,54.0754
2023-05-21T05:48:05.766Z,54.0692
2023-05-21T05:49:07.806Z,54.0585
2023-05-21T05:50:09.867Z,54.0238
2023-05-21T05:51:11.920Z,54.0577
2023-05-21T05:52:13.939Z,53.9685
2023-05-21T05:53:15.976Z,53.8208
2023-05-21T05:54:18.022Z,53.7185
2023-05-21T05:55:20.098Z,53.6454
2023-05-21T05:56:22.138Z,53.5654
2023-05-21T05:57:24.155Z,53.4700
2023-05-21T05:58:26.231Z,53.3546
2023-05-21T05:59:28.288Z,53.2362
2023-05-21T06:00:30.350Z,53.1300
2023-05-21T06:01:32.370Z,53.0885
2023-05-21T06:02:34.467Z,52.9838
2023-05-21T06:03:36.679Z,52.9008
2023-05-21T06:04:38.489Z,52.8231
2023-05-21T06:05:40.780Z,52.8038
2023-05-21T06:06:42.591Z,52.7915
2023-05-21T06:07:44.608Z,52.7592
2023-05-21T06:08:46.666Z,52.7262
2023-05-21T06:09:48.715Z,52.6823
2023-05-21T06:10:50.753Z,52.6108
2023-05-21T06:11:52.793Z,52.6331
2023-05-21T06:12:54.851Z,52.6438
2023-05-21T06:13:56.884Z,52.6731
2023-05-21T06:14:58.928Z,52.6685
2023-05-21T06:16:01.043Z,52.6454
2023-05-21T06:17:03.036Z,52.6015
2023-05-21T06:18:05.071Z,52.5823
2023-05-21T06:19:07.128Z,52.5954
2023-05-21T06:20:09.129Z,52.6346
2023-05-21T06:21:11.199Z,52.6477
2023-05-21T06:22:13.262Z,52.6800
2023-05-21T06:23:15.285Z,52.7377
2023-05-21T06:24:17.312Z,52.7323
2023-05-21T06:25:19.375Z,52.7869
2023-05-21T06:26:21.414Z,52.7523
2023-05-21T06:27:23.455Z,52.6846
2023-05-21T06:28:25.490Z,52.6662
2023-05-21T06:29:27.586Z,52.6846
2023-05-21T06:30:29.608Z,52.7000
2023-05-21T06:31:31.630Z,52.6931
2023-05-21T06:32:33.821Z,52.7062
2023-05-21T06:33:35.844Z,52.7354
2023-05-21T06:34:37.793Z,52.8008
2023-05-21T06:35:39.820Z,52.9254
2023-05-21T06:36:41.884Z,52.9200
2023-05-21T06:37:43.939Z,53.0246
2023-05-21T06:38:45.970Z,53.0785
2023-05-21T06:39:48.035Z,53.1469
2023-05-21T06:40:50.049Z,53.2385
2023-05-21T06:41:52.084Z,53.2823
2023-05-21T06:42:54.149Z,53.3392
2023-05-21T06:43:56.188Z,53.3908
2023-05-21T06:44:58.239Z,53.4808
2023-05-21T06:46:00.298Z,53.5085
2023-05-21T06:47:02.305Z,53.5654
2023-05-21T06:48:04.401Z,53.5846
2023-05-21T06:49:06.426Z,53.6362
2023-05-21T06:50:08.461Z,53.6008
2023-05-21T06:51:10.526Z,53.5062
2023-05-21T06:52:12.646Z,53.5092
2023-05-21T06:53:14.580Z,53.4892
2023-05-21T06:54:16.677Z,53.4400
2023-05-21T06:55:18.701Z,53.4808
2023-05-21T06:56:20.735Z,53.4392
2023-05-21T06:57:22.774Z,53.3577
2023-05-21T06:58:24.805Z,53.2769
2023-05-21T06:59:26.869Z,53.2885
2023-05-21T07:00:28.918Z,53.2646
2023-05-21T07:01:31.024Z,53.2700
2023-05-21T07:02:33.181Z,53.2800
2023-05-21T07:03:35.090Z,53.2246
2023-05-21T07:04:37.103Z,53.1977
2023-05-21T07:05:39.643Z,53.3062
2023-05-21T07:06:41.181Z,53.4885
2023-05-21T07:07:43.224Z,53.4254
2023-05-21T07:08:45.295Z,53.2269
2023-05-21T07:09:47.344Z,53.1715
2023-05-21T07:10:49.388Z,53.0646
2023-05-21T07:11:59.002Z,52.9854
2023-05-21T07:12:54.019Z,53.0450
2023-05-21T07:13:55.588Z,53.0938
2023-05-21T07:14:59.371Z,53.2685
2023-05-21T07:15:59.599Z,53.3854
2023-05-21T07:17:01.744Z,53.3423
2023-05-21T07:18:04.519Z,53.2885
2023-05-21T07:19:05.913Z,53.2877
2023-05-21T07:20:07.769Z,53.5246
2023-05-21T07:21:09.822Z,53.4962
2023-05-21T07:22:11.906Z,53.4638
2023-05-21T07:23:13.930Z,53.2946
2023-05-21T07:24:15.982Z,53.2623
2023-05-21T07:25:18.047Z,53.4546
2023-05-21T07:26:20.045Z,53.6977
2023-05-21T07:27:25.738Z,54.0954
2023-05-21T07:28:24.174Z,54.3862
2023-05-21T07:29:26.224Z,54.3669
2023-05-21T07:30:28.252Z,54.5292
2023-05-21T07:31:30.371Z,54.4462
2023-05-21T07:32:32.357Z,54.5962
2023-05-21T07:33:34.408Z,54.4008
2023-05-21T07:34:36.444Z,54.2800
2023-05-21T07:35:38.602Z,54.1762
2023-05-21T07:36:40.567Z,54.1831
2023-05-21T07:37:42.578Z,54.1838
2023-05-21T07:38:44.620Z,54.1462
2023-05-21T07:39:46.666Z,54.2038
2023-05-21T07:40:48.707Z,54.1215
2023-05-21T07:41:50.780Z,53.9223
2023-05-21T07:42:52.836Z,53.9469
2023-05-21T07:43:54.868Z,54.2715
2023-05-21T07:44:56.918Z,54.1823
2023-05-21T07:45:58.983Z,54.2515
2023-05-21T07:47:01.011Z,54.3838
2023-05-21T07:48:03.138Z,54.4431
2023-05-21T07:49:05.120Z,54.3577
2023-05-21T07:50:07.134Z,54.2654
2023-05-21T07:51:09.210Z,54.3185
2023-05-21T07:52:11.251Z,54.6015
2023-05-21T07:53:13.336Z,54.5485
2023-05-21T07:54:15.404Z,54.3215
2023-05-21T07:55:18.034Z,54.1308
2023-05-21T07:56:19.410Z,54.1754
2023-05-21T07:57:21.500Z,54.2023
2023-05-21T07:58:23.517Z,54.3554
2023-05-21T07:59:26.586Z,54.3800
2023-05-21T08:00:27.596Z,54.0962
2023-05-21T08:01:29.662Z,54.0454
2023-05-21T08:02:31.792Z,54.1262
2023-05-21T08:03:33.920Z,54.4338
2023-05-21T08:04:37.478Z,54.5238
2023-05-21T08:05:38.147Z,54.4208
2023-05-21T08:06:40.228Z,54.4846
2023-05-21T08:07:41.918Z,54.5485
2023-05-21T08:08:44.000Z,54.5638
2023-05-21T08:09:46.052Z,54.4885
2023-05-21T08:10:48.089Z,54.6138
2023-05-21T08:11:50.222Z,55.1054
2023-05-21T08:12:52.194Z,55.2723
2023-05-21T08:13:54.250Z,55.2269
2023-05-21T08:14:56.261Z,55.0015
2023-05-21T08:15:58.339Z,55.1523
2023-05-21T08:17:00.381Z,55.2123
2023-05-21T08:18:02.535Z,55.1831
2023-05-21T08:19:04.502Z,55.1831
2023-05-21T08:20:06.512Z,55.1492
2023-05-21T08:21:08.579Z,54.8715
2023-05-21T08:22:10.655Z,55.1638
2023-05-21T08:23:12.721Z,55.4138
2023-05-21T08:24:14.819Z,55.2838
2023-05-21T08:25:16.734Z,55.4023
2023-05-21T08:26:18.821Z,55.5269
2023-05-21T08:27:20.830Z,54.9992
2023-05-21T08:28:22.900Z,54.8508
2023-05-21T08:29:24.924Z,54.9762
2023-05-21T08:30:27.146Z,54.5054
2023-05-21T08:31:29.204Z,55.0400
2023-05-21T08:32:31.124Z,56.0277
2023-05-21T08:33:33.138Z,56.3385
2023-05-21T08:34:36.685Z,56.5746
2023-05-21T08:35:37.382Z,56.4583
2023-05-21T08:36:39.359Z,56.3531
2023-05-21T08:37:41.339Z,56.4200
2023-05-21T08:38:43.362Z,56.4346
2023-05-21T08:39:45.506Z,56.6862
2023-05-21T08:40:47.456Z,56.8877
2023-05-21T08:41:49.770Z,57.1400
2023-05-21T08:42:51.594Z,57.5415
2023-05-21T08:43:54.952Z,57.6008
2023-05-21T08:44:55.727Z,57.6431
2023-05-21T08:45:57.711Z,57.6885
2023-05-21T08:46:59.759Z,57.6415
2023-05-21T08:48:01.835Z,57.2638
2023-05-21T08:49:03.868Z,57.2023
2023-05-21T08:50:05.871Z,57.3931
2023-05-21T08:51:07.937Z,57.5046
2023-05-21T08:52:09.985Z,57.6815
2023-05-21T08:53:23.417Z,57.4600
2023-05-21T08:54:14.097Z,57.4238
2023-05-21T08:55:16.122Z,57.2477
2023-05-21T08:56:18.285Z,57.0054
2023-05-21T08:57:20.256Z,56.8908
2023-05-21T08:58:22.285Z,56.7300
2023-05-21T08:59:24.342Z,56.6315
2023-05-21T09:00:26.373Z,56.4608
2023-05-21T09:01:28.498Z,56.6669
2023-05-21T09:02:30.535Z,56.7623
2023-05-21T09:03:32.579Z,56.7485
2023-05-21T09:04:34.739Z,56.4662
2023-05-21T09:05:36.797Z,56.5600
2023-05-21T09:06:38.741Z,56.9885
2023-05-21T09:07:40.745Z,57.0685
2023-05-21T09:08:42.780Z,56.6423
2023-05-21T09:09:44.823Z,56.1915
2023-05-21T09:10:46.904Z,56.4192
2023-05-21T09:11:48.927Z,56.4662
2023-05-21T09:12:52.019Z,56.1654
2023-05-21T09:13:53.032Z,56.2415
2023-05-21T09:14:55.044Z,56.6808
2023-05-21T09:15:57.099Z,57.4685
2023-05-21T09:16:59.428Z,58.3946
2023-05-21T09:18:01.237Z,58.5862
2023-05-21T09:19:04.603Z,58.5569
2023-05-21T09:20:05.350Z,58.2085
2023-05-21T09:21:07.377Z,57.8808
2023-05-21T09:22:09.415Z,58.0277
2023-05-21T09:23:11.535Z,58.1692
2023-05-21T09:24:13.518Z,58.0246
2023-05-21T09:25:15.675Z,57.5192
2023-05-21T09:26:17.614Z,57.7354
2023-05-21T09:27:19.668Z,57.6154
2023-05-21T09:28:21.756Z,57.3108
2023-05-21T09:29:23.737Z,56.6869
2023-05-21T09:30:28.814Z,56.9977
2023-05-21T09:31:27.902Z,56.6677
2023-05-21T09:32:29.964Z,56.2792
2023-05-21T09:33:32.010Z,56.8731
2023-05-21T09:34:34.060Z,56.3677
2023-05-21T09:35:37.503Z,56.1454
2023-05-21T09:36:38.192Z,56.0738
2023-05-21T09:37:40.231Z,55.0062
2023-05-21T09:38:42.283Z,54.5354
2023-05-21T09:39:44.303Z,54.9208
2023-05-21T09:40:46.396Z,55.0346
2023-05-21T09:41:48.417Z,55.6615
2023-05-21T09:42:50.488Z,55.6492
2023-05-21T09:43:52.499Z,55.5869
2023-05-21T09:44:54.536Z,55.5492
2023-05-21T09:45:57.750Z,55.8354
2023-05-21T09:46:58.843Z,55.8431
2023-05-21T09:48:00.802Z,56.4808
2023-05-21T09:49:02.746Z,56.8000
2023-05-21T09:50:04.821Z,56.6531
2023-05-21T09:51:06.816Z,56.4200
2023-05-21T09:52:08.870Z,56.0885
2023-05-21T09:53:10.968Z,55.8346
2023-05-21T09:54:12.986Z,55.9877
2023-05-21T09:55:15.019Z,56.0615
2023-05-21T09:56:17.105Z,55.9531
2023-05-21T09:57:19.131Z,55.8677
2023-05-21T09:58:21.212Z,56.2485
2023-05-21T09:59:23.799Z,56.0846
2023-05-21T10:00:25.257Z,56.0654
2023-05-21T10:01:27.374Z,56.1592
2023-05-21T10:02:29.428Z,56.1300
2023-05-21T10:03:31.434Z,55.9615
2023-05-21T10:04:33.469Z,55.9000
2023-05-21T10:05:35.521Z,56.1362
2023-05-21T10:06:37.566Z,56.2438
2023-05-21T10:07:39.595Z,56.1623
2023-05-21T10:08:41.655Z,55.8808
2023-05-21T10:09:43.714Z,55.1938
2023-05-21T10:10:45.736Z,54.6985
2023-05-21T10:11:47.801Z,54.4146
2023-05-21T10:12:49.879Z,54.2492
2023-05-21T10:13:51.882Z,54.1085
2023-05-21T10:14:53.890Z,54.8015
2023-05-21T10:15:55.950Z,55.3315
2023-05-21T10:16:58.083Z,55.5969
2023-05-21T10:18:00.080Z,55.6877
2023-05-21T10:19:02.140Z,55.5069
2023-05-21T10:20:04.135Z,55.7215
2023-05-21T10:21:06.161Z,55.3962
2023-05-21T10:22:08.209Z,55.5108
2023-05-21T10:23:10.259Z,54.5431
2023-05-21T10:24:12.312Z,54.2192
2023-05-21T10:25:14.380Z,54.0831
2023-05-21T10:26:16.394Z,54.2331
2023-05-21T10:27:18.426Z,54.4054
2023-05-21T10:28:20.518Z,54.5292
2023-05-21T10:29:22.529Z,55.2908
2023-05-21T10:30:24.559Z,55.8469
2023-05-21T10:31:26.644Z,55.6492
2023-05-21T10:32:28.966Z,55.5000
2023-05-21T10:33:30.787Z,55.5392
2023-05-21T10:34:32.738Z,55.5138
2023-05-21T10:36:36.858Z,56.1346
2023-05-21T10:37:38.905Z,55.3938
2023-05-21T10:38:41.180Z,55.5277
2023-05-21T10:39:42.973Z,55.6246
2023-05-21T10:40:45.013Z,55.9146
2023-05-21T10:41:47.163Z,55.3885
2023-05-21T10:42:49.135Z,55.2638
2023-05-21T10:43:51.202Z,55.3815
2023-05-21T10:44:53.212Z,55.0162
2023-05-21T10:45:55.361Z,54.6908
2023-05-21T10:46:57.275Z,54.4992
2023-05-21T10:47:59.318Z,54.5062
2023-05-21T10:49:01.367Z,54.5746
2023-05-21T10:50:03.415Z,54.4346
2023-05-21T10:51:05.507Z,54.0400
2023-05-21T10:52:07.508Z,53.8338
2023-05-21T10:53:10.925Z,53.6008
2023-05-21T10:54:11.571Z,53.1154
2023-05-21T10:55:13.825Z,52.9008
2023-05-21T10:56:15.729Z,52.8954
2023-05-21T10:57:17.731Z,52.9200
2023-05-21T10:58:19.748Z,53.0077
2023-05-21T10:59:21.819Z,52.8492
2023-05-21T11:00:23.853Z,52.9369
2023-05-21T11:01:26.042Z,52.9500
2023-05-21T11:02:28.003Z,52.5777
2023-05-21T11:03:30.180Z,52.4485
2023-05-21T11:04:32.023Z,52.3877
2023-05-21T11:05:34.079Z,52.3200
2023-05-21T11:06:36.128Z,52.0162
2023-05-21T11:07:38.174Z,51.9815
2023-05-21T11:08:40.217Z,52.2385
2023-05-21T11:09:42.273Z,52.1446
2023-05-21T11:10:44.288Z,52.3392
2023-05-21T11:11:46.475Z,52.6246
2023-05-21T11:12:48.382Z,52.5169
2023-05-21T11:13:50.439Z,52.3746
2023-05-21T11:14:52.445Z,51.9831
2023-05-21T11:15:54.568Z,51.9769
2023-05-21T11:16:56.578Z,52.0446
2023-05-21T11:17:58.676Z,51.3900
2023-05-21T11:19:00.902Z,51.2769
2023-05-21T11:20:02.682Z,50.8662
2023-05-21T11:21:04.747Z,50.5362
2023-05-21T11:22:06.864Z,50.8692
2023-05-21T11:23:08.824Z,51.4285
2023-05-21T11:24:10.869Z,51.6031
2023-05-21T11:25:12.909Z,51.1962
2023-05-21T11:26:14.943Z,50.8077
2023-05-21T11:27:17.118Z,50.5992
2023-05-21T11:28:19.056Z,50.7154
2023-05-21T11:29:21.113Z,50.7262
2023-05-21T11:30:23.130Z,51.1546
2023-05-21T11:31:25.219Z,50.5623
2023-05-21T11:32:27.218Z,50.5038
2023-05-21T11:33:29.375Z,50.5654
2023-05-21T11:34:31.296Z,50.8777
2023-05-21T11:35:33.346Z,51.0338
2023-05-21T11:36:36.084Z,50.7369
2023-05-21T11:37:37.404Z,50.7300
2023-05-21T11:38:39.457Z,50.4962
2023-05-21T11:39:41.600Z,51.4185
2023-05-21T11:40:43.572Z,51.6577
2023-05-21T11:41:45.610Z,51.6385
2023-05-21T11:42:47.636Z,51.3462
2023-05-21T11:43:49.681Z,50.6777
2023-05-21T11:44:51.716Z,49.8438
2023-05-21T11:45:53.852Z,49.4885
2023-05-21T11:46:55.952Z,49.8008
2023-05-21T11:47:57.917Z,49.8992
2023-05-21T11:48:59.915Z,50.0346
2023-05-21T11:50:01.953Z,49.7846
2023-05-21T11:51:04.012Z,49.4746
2023-05-21T11:52:06.064Z,49.3854
2023-05-21T11:53:08.127Z,49.3677
2023-05-21T11:54:10.218Z,48.9092
2023-05-21T11:55:12.462Z,48.8785
2023-05-21T11:56:14.235Z,48.6623
2023-05-21T11:57:16.322Z,48.2300
2023-05-21T11:58:18.354Z,47.7254
2023-05-21T11:59:20.942Z,46.8662
2023-05-21T12:00:22.484Z,46.8085
2023-05-21T12:01:24.455Z,46.8192
2023-05-21T12:02:26.555Z,47.0262
2023-05-21T12:03:28.595Z,47.1638
2023-05-21T12:04:30.575Z,46.5738
2023-05-21T12:05:32.698Z,46.8185
2023-05-21T12:06:34.695Z,46.8246
2023-05-21T12:07:36.755Z,46.7315
2023-05-21T12:08:38.753Z,46.8754
2023-05-21T12:09:40.895Z,46.5846
2023-05-21T12:10:44.427Z,46.4385
2023-05-21T12:11:44.907Z,46.3785
2023-05-21T12:12:55.610Z,46.3362
2023-05-21T12:13:49.010Z,46.5169
2023-05-21T12:14:51.017Z,46.6254
2023-05-21T12:15:53.069Z,47.1038
2023-05-21T12:16:55.163Z,47.6438
2023-05-21T12:17:57.396Z,47.8592
2023-05-21T12:18:59.250Z,48.2462
2023-05-21T12:20:01.290Z,48.5200
2023-05-21T12:21:03.349Z,48.7662
2023-05-21T12:22:05.368Z,48.9069
2023-05-21T12:23:07.418Z,49.2985
2023-05-21T12:24:09.547Z,49.6554
2023-05-21T12:25:11.535Z,49.0315
2023-05-21T12:26:13.586Z,48.7715
2023-05-21T12:27:15.735Z,48.7085
2023-05-21T12:28:17.687Z,48.4577
2023-05-21T12:29:19.702Z,48.6285
2023-05-21T12:30:21.802Z,48.3577
2023-05-21T12:31:23.846Z,48.1831
2023-05-21T12:32:25.918Z,47.8446
2023-05-21T12:33:27.894Z,48.0454
2023-05-21T12:34:29.943Z,48.0192
2023-05-21T12:35:32.082Z,48.4700
2023-05-21T12:36:34.071Z,49.0038
2023-05-21T12:37:36.111Z,48.9508
2023-05-21T12:38:38.126Z,48.8354
2023-05-21T12:39:40.175Z,48.6469
2023-05-21T12:40:42.234Z,48.6315
2023-05-21T12:41:44.281Z,48.7377
2023-05-21T12:42:46.325Z,48.6346
2023-05-21T12:43:48.371Z,48.7031
2023-05-21T12:44:50.404Z,48.7377
2023-05-21T12:45:52.503Z,48.8554
2023-05-21T12:46:54.513Z,48.8154
2023-05-21T12:47:56.753Z,48.6792
2023-05-21T12:48:58.589Z,48.7438
2023-05-21T12:50:00.641Z,48.7992
2023-05-21T12:51:02.704Z,49.0315
2023-05-21T12:52:04.761Z,49.4262
2023-05-21T12:53:06.830Z,49.7846
2023-05-21T12:54:08.832Z,49.6869
2023-05-21T12:55:10.895Z,49.3900
2023-05-21T12:56:12.917Z,49.4669
2023-05-21T12:57:14.980Z,49.6331
2023-05-21T12:58:17.002Z,50.2692
2023-05-21T12:59:19.055Z,50.9677
2023-05-21T13:00:21.107Z,50.7692
2023-05-21T13:01:23.167Z,50.8892
2023-05-21T13:02:25.243Z,51.0792
2023-05-21T13:03:27.248Z,51.6508
2023-05-21T13:04:29.308Z,52.0992
2023-05-21T13:05:31.327Z,52.4938
2023-05-21T13:06:33.388Z,52.6446
2023-05-21T13:07:35.417Z,52.7946
2023-05-21T13:08:37.489Z,52.2815
2023-05-21T13:09:39.513Z,52.2377
2023-05-21T13:10:41.565Z,52.2792
2023-05-21T13:11:43.658Z,52.6262
2023-05-21T13:12:45.700Z,53.1592
2023-05-21T13:13:47.727Z,53.5077
2023-05-21T13:14:49.773Z,53.5346
2023-05-21T13:15:51.802Z,53.7277
2023-05-21T13:16:53.869Z,53.9823
2023-05-21T13:17:56.948Z,54.3569
2023-05-21T13:18:58.031Z,54.0654
2023-05-21T13:20:00.005Z,54.1785
2023-05-21T13:21:02.021Z,53.4638
2023-05-21T13:22:04.097Z,53.2646
2023-05-21T13:23:07.263Z,53.3169
2023-05-21T13:24:08.170Z,53.1662
2023-05-21T13:25:10.235Z,53.0085
2023-05-21T13:26:12.283Z,52.9500
2023-05-21T13:27:14.330Z,52.8623
2023-05-21T13:28:16.359Z,53.2054
2023-05-21T13:29:18.437Z,52.8715
2023-05-21T13:30:20.486Z,52.6523
2023-05-21T13:31:22.492Z,52.8900
2023-05-21T13:32:24.622Z,52.9677
2023-05-21T13:33:26.801Z,52.8508
2023-05-21T13:34:28.637Z,52.8592
2023-05-21T13:35:31.177Z,53.2962
2023-05-21T13:36:32.725Z,53.0523
2023-05-21T13:37:34.765Z,52.9931
2023-05-21T13:38:36.823Z,53.0231
2023-05-21T13:39:38.897Z,53.7615
2023-05-21T13:40:41.102Z,53.8862
2023-05-21T13:41:43.044Z,53.9554
2023-05-21T13:42:45.200Z,53.7585
2023-05-21T13:43:47.117Z,53.1869
2023-05-21T13:44:49.194Z,52.8869
2023-05-21T13:45:51.228Z,52.9585
2023-05-21T13:46:53.353Z,52.9646
2023-05-21T13:47:55.363Z,52.9277
2023-05-21T13:48:57.348Z,52.9215
2023-05-21T13:49:59.412Z,52.7877
2023-05-21T13:51:01.446Z,52.4546
2023-05-21T13:52:03.579Z,52.0315
2023-05-21T13:53:05.485Z,51.9723
2023-05-21T13:54:07.544Z,52.0185
2023-05-21T13:55:09.574Z,51.4446
2023-05-21T13:56:11.637Z,51.4400
2023-05-21T13:57:13.694Z,51.4892
2023-05-21T13:58:15.746Z,50.6938
2023-05-21T13:59:17.763Z,50.4738
2023-05-21T14:00:19.831Z,50.5715
2023-05-21T14:01:21.926Z,51.5108
2023-05-21T14:02:24.042Z,51.3446
2023-05-21T14:03:26.010Z,50.2431
2023-05-21T14:04:28.007Z,49.8592
2023-05-21T14:05:30.021Z,50.1054
2023-05-21T14:06:32.101Z,49.8777
2023-05-21T14:07:34.170Z,50.0131
2023-05-21T14:08:36.214Z,49.8246
2023-05-21T14:09:38.240Z,49.6054
2023-05-21T14:10:40.308Z,49.4069
2023-05-21T14:11:42.404Z,49.6169
2023-05-21T14:12:44.343Z,49.6785
2023-05-21T14:13:46.397Z,50.0915
2023-05-21T14:14:48.498Z,50.8554
2023-05-21T14:15:50.524Z,50.5985
2023-05-21T14:16:52.873Z,50.0500
2023-05-21T14:17:54.782Z,49.7992
2023-05-21T14:18:56.687Z,49.9069
2023-05-21T14:19:58.747Z,50.2892
2023-05-21T14:21:00.764Z,50.1500
2023-05-21T14:22:02.781Z,50.4369
2023-05-21T14:23:04.832Z,50.9215
2023-05-21T14:24:07.016Z,51.1462
2023-05-21T14:25:08.968Z,50.3446
2023-05-21T14:26:11.011Z,50.0715
2023-05-21T14:27:15.273Z,49.3869
2023-05-21T14:28:15.138Z,48.3823
2023-05-21T14:29:17.054Z,48.0092
2023-05-21T14:30:19.116Z,47.8185
2023-05-21T14:31:21.154Z,47.8638
2023-05-21T14:32:23.449Z,47.4385
2023-05-21T14:33:25.270Z,47.2015
2023-05-21T14:34:27.290Z,46.5646
2023-05-21T14:35:29.396Z,46.5454
2023-05-21T14:36:31.543Z,46.7331
2023-05-21T14:37:33.474Z,46.9215
2023-05-21T14:38:35.448Z,46.7846
2023-05-21T14:39:37.507Z,46.9092
2023-05-21T14:40:39.636Z,46.5531
2023-05-21T14:41:41.627Z,46.5731
2023-05-21T14:42:43.681Z,46.7508
2023-05-21T14:43:45.685Z,46.5031
2023-05-21T14:44:47.751Z,46.2692
2023-05-21T14:45:49.786Z,46.1823
2023-05-21T14:46:51.852Z,46.1269
2023-05-21T14:47:53.940Z,46.1631
2023-05-21T14:48:55.912Z,45.6669
2023-05-21T14:49:58.074Z,45.6369
2023-05-21T14:51:00.072Z,45.8585
2023-05-21T14:52:02.050Z,45.7323
2023-05-21T14:53:04.146Z,45.3585
2023-05-21T14:54:06.129Z,44.7708
2023-05-21T14:55:08.152Z,44.2946
2023-05-21T14:56:10.259Z,45.0069
2023-05-21T14:57:12.355Z,45.6908
2023-05-21T14:58:14.773Z,45.2146
2023-05-21T14:59:16.358Z,44.9877
2023-05-21T15:00:18.420Z,44.9408
2023-05-21T15:01:20.480Z,44.7823
2023-05-21T15:02:22.559Z,44.4923
2023-05-21T15:03:24.710Z,44.4562
2023-05-21T15:04:26.686Z,45.8154
2023-05-21T15:05:28.653Z,46.5985
2023-05-21T15:06:30.696Z,45.5500
2023-05-21T15:07:32.712Z,45.6208
2023-05-21T15:08:34.850Z,46.2246
2023-05-21T15:09:36.817Z,46.0123
2023-05-21T15:10:38.911Z,46.3708
2023-05-21T15:11:40.915Z,46.5331
2023-05-21T15:12:43.032Z,46.8892
2023-05-21T15:13:44.994Z,47.2069
2023-05-21T15:14:47.021Z,46.9823
2023-05-21T15:15:49.114Z,47.5838
2023-05-21T15:16:51.249Z,48.0008
2023-05-21T15:17:53.211Z,48.4992
2023-05-21T15:18:55.238Z,48.5515
2023-05-21T15:19:57.295Z,48.9423
2023-05-21T15:20:59.339Z,48.8562
2023-05-21T15:22:01.405Z,48.3262
2023-05-21T15:24:05.452Z,49.0231
2023-05-21T15:25:07.540Z,48.3662
2023-05-21T15:26:09.554Z,47.5877
2023-05-21T15:27:11.615Z,47.6115
2023-05-21T15:28:13.665Z,47.7646
2023-05-21T15:29:15.708Z,48.2169
2023-05-21T15:30:17.745Z,48.7285
2023-05-21T15:31:19.789Z,48.3546
2023-05-21T15:32:21.920Z,48.0531
2023-05-21T15:33:23.896Z,47.8631
2023-05-21T15:34:25.958Z,47.8792
2023-05-21T15:35:28.148Z,47.3438
2023-05-21T15:36:30.007Z,46.9938
2023-05-21T15:37:32.118Z,46.8585
2023-05-21T15:38:34.133Z,46.6462
2023-05-21T15:39:36.173Z,46.2808
2023-05-21T15:40:38.233Z,45.8562
2023-05-21T15:41:40.280Z,45.4854
2023-05-21T15:42:42.288Z,45.5754
2023-05-21T15:43:44.328Z,45.3146
2023-05-21T15:44:46.449Z,45.0569
2023-05-21T15:45:48.448Z,45.2069
2023-05-21T15:46:50.524Z,45.2954
2023-05-21T15:47:52.669Z,45.2769
2023-05-21T15:48:54.580Z,45.1769
2023-05-21T15:49:56.639Z,45.1223
2023-05-21T15:50:58.655Z,44.9115
2023-05-21T15:52:00.693Z,44.7846
2023-05-21T15:53:02.758Z,44.4485
2023-05-21T15:54:04.785Z,44.2623
2023-05-21T15:55:06.832Z,44.0931
2023-05-21T15:56:08.871Z,44.0277
2023-05-21T15:57:10.951Z,43.9854
2023-05-21T15:58:13.003Z,43.8008
2023-05-21T15:59:15.042Z,43.5931
